Portada
METAR-TAF:

METAR-TAF

Aeroports :

Koror, Babeldaob, Palau

latitud: 07-22N, longitud: 134-32E, altitud: 54 m

Observació

L'informe es va fer fa 1 hora i 4 minuts, a les 03:50 UTC
Vent 10 kt del Nord-Est amb ràfegues de 18 kt
Temperatura 30°C
Humitat 66%
Pressió 1010 hPa
Visibilitat: 24.1 km
Núvols disperses a una alçada de 1600 ft
Cel ennuvolat a una alçada de 12000 ft
Cel ennuvolat a una alçada de 30000 ft

METAR: PTRO 200350Z 05010G18KT 15SM SCT016 BKN120 BKN300 30/23 A2983

Hora: 13:54 (04:54 UTC)

Pronòstic

L'informe es va fer fa 5 hores i 16 minuts, a les 23:38 UTC
Pronòstic vàlid del 20 a les 00 UTC al 20 a les 24 UTC
Vent 12 kt del Nord-Est
Visibilitat: 10 km
Núvols disperses a una alçada de 1600 ft
Núvols disperses a una alçada de 12000 ft

TAF: PTRO 192338Z 2000/2024 04012KT P6SM SCT016 SCT120

Observacions i pronòstics meteorològics de més de 4000 aeroports (METAR i TAF).

Les estacions disponibles són els punts grocs i vermells al mapa.

Posi el ratolí al punt desitjat per veure el nom de l'estació.

Feu clic per veure les observacions i els pronòstics meteorològics.

Per canviar el mapa: feu clic els botons verds amb una creu de color negre per apropar; al botó verd amb un guió per allunyar la imatge; o en les fletxes verdes per a mapes adjacents.


METAR-TAF: